createdAt,value
2023-01-08T00:01:30.952Z,2.47
2023-01-08T00:04:18.939Z,2.22
2023-01-08T00:07:06.422Z,2.30
2023-01-08T00:09:55.373Z,2.55
2023-01-08T00:12:42.861Z,2.35
2023-01-08T00:15:31.253Z,2.17
2023-01-08T00:18:18.669Z,2.25
2023-01-08T00:21:06.132Z,2.03
2023-01-08T00:23:53.536Z,1.92
2023-01-08T00:26:42.670Z,2.28
2023-01-08T00:29:30.422Z,2.30
2023-01-08T00:32:17.505Z,2.20
2023-01-08T00:35:05.188Z,1.90
2023-01-08T00:37:53.346Z,2.45
2023-01-08T00:40:41.181Z,2.03
2023-01-08T00:43:29.741Z,1.80
2023-01-08T00:46:17.309Z,2.05
2023-01-08T00:49:04.729Z,1.90
2023-01-08T00:51:52.334Z,1.77
2023-01-08T00:54:39.807Z,2.38
2023-01-08T00:57:27.474Z,2.00
2023-01-08T01:00:17.321Z,2.60
2023-01-08T01:03:05.446Z,1.90
2023-01-08T01:06:01.571Z,2.20
2023-01-08T01:08:49.193Z,2.00
2023-01-08T01:11:36.355Z,1.48
2023-01-08T01:14:24.110Z,2.17
2023-01-08T01:17:14.914Z,2.25
2023-01-08T01:20:03.772Z,1.92
2023-01-08T01:22:52.255Z,1.83
2023-01-08T01:25:39.738Z,2.22
2023-01-08T01:28:29.623Z,2.33
2023-01-08T01:31:19.515Z,2.28
2023-01-08T01:34:12.566Z,1.80
2023-01-08T01:37:02.594Z,2.50
2023-01-08T01:39:51.257Z,1.98
2023-01-08T01:42:44.248Z,1.98
2023-01-08T01:45:32.209Z,2.20
2023-01-08T01:48:19.536Z,2.03
2023-01-08T01:51:08.069Z,2.15
2023-01-08T01:53:55.707Z,2.00
2023-01-08T01:56:44.273Z,2.65
2023-01-08T01:59:32.281Z,2.03
2023-01-08T02:02:22.678Z,2.40
2023-01-08T02:05:10.167Z,2.60
2023-01-08T02:08:05.323Z,2.40
2023-01-08T02:10:58.705Z,2.67
2023-01-08T02:13:55.619Z,2.20
2023-01-08T02:16:50.394Z,2.85
2023-01-08T02:19:45.539Z,2.38
2023-01-08T02:22:39.104Z,1.98
2023-01-08T02:25:39.063Z,2.78
2023-01-08T02:28:29.129Z,2.97
2023-01-08T02:31:17.629Z,2.92
2023-01-08T02:34:05.728Z,2.95
2023-01-08T02:36:55.569Z,3.33
2023-01-08T02:39:53.224Z,3.70
2023-01-08T02:42:47.160Z,3.28
2023-01-08T02:48:35.524Z,3.42
2023-01-08T02:51:27.715Z,3.78
2023-01-08T02:54:20.826Z,3.10
2023-01-08T02:57:13.280Z,3.42
2023-01-08T03:00:00.781Z,3.10
2023-01-08T03:02:52.368Z,3.28
2023-01-08T03:05:41.450Z,3.15
2023-01-08T03:08:29.744Z,3.50
2023-01-08T03:11:19.520Z,3.28
2023-01-08T03:14:11.585Z,3.30
2023-01-08T03:17:02.966Z,3.03
2023-01-08T03:19:55.566Z,2.97
2023-01-08T03:22:54.020Z,3.60
2023-01-08T03:25:44.961Z,3.28
2023-01-08T03:28:34.616Z,3.92
2023-01-08T03:31:23.260Z,3.28
2023-01-08T03:34:12.463Z,3.40
2023-01-08T03:37:07.627Z,3.53
2023-01-08T03:40:01.366Z,3.45
2023-01-08T03:42:48.967Z,3.70
2023-01-08T03:45:38.793Z,3.35
2023-01-08T03:48:28.471Z,3.75
2023-01-08T03:51:16.221Z,3.95
2023-01-08T03:54:05.341Z,3.88
2023-01-08T03:56:52.951Z,4.10
2023-01-08T03:59:40.540Z,3.60
2023-01-08T04:02:28.200Z,3.90
2023-01-08T04:05:15.645Z,4.07
2023-01-08T04:08:03.003Z,3.47
2023-01-08T04:10:51.443Z,3.97
2023-01-08T04:13:39.271Z,4.10
2023-01-08T04:16:26.831Z,3.58
2023-01-08T04:19:15.091Z,3.38
2023-01-08T04:22:02.767Z,3.05
2023-01-08T04:24:50.308Z,3.42
2023-01-08T04:27:39.166Z,3.80
2023-01-08T04:30:26.594Z,3.75
2023-01-08T04:33:13.918Z,3.53
2023-01-08T04:36:01.055Z,3.33
2023-01-08T04:38:48.558Z,3.03
2023-01-08T04:41:36.259Z,3.22
2023-01-08T04:44:25.293Z,3.55
2023-01-08T04:47:12.878Z,3.88
2023-01-08T04:50:00.346Z,3.53
2023-01-08T04:52:47.815Z,3.95
2023-01-08T04:55:35.558Z,3.95
2023-01-08T04:58:23.102Z,4.03
2023-01-08T05:01:13.928Z,4.40
2023-01-08T05:04:03.014Z,4.18
2023-01-08T05:06:50.592Z,4.05
2023-01-08T05:09:38.266Z,3.97
2023-01-08T05:12:25.782Z,4.03
2023-01-08T05:15:13.197Z,3.97
2023-01-08T05:18:03.287Z,3.85
2023-01-08T05:20:50.691Z,2.75
2023-01-08T05:23:38.490Z,3.33
2023-01-08T05:26:26.052Z,3.38
2023-01-08T05:29:13.726Z,3.60
2023-01-08T05:32:01.210Z,3.40
2023-01-08T05:34:50.490Z,3.50
2023-01-08T05:37:39.307Z,3.40
2023-01-08T05:40:26.533Z,3.75
2023-01-08T05:43:13.927Z,3.10
2023-01-08T05:46:02.297Z,3.28
2023-01-08T05:48:49.914Z,2.67
2023-01-08T05:51:38.953Z,2.97
2023-01-08T05:54:26.557Z,3.03
2023-01-08T05:57:13.933Z,3.25
2023-01-08T06:00:01.648Z,2.83
2023-01-08T06:02:49.757Z,3.15
2023-01-08T06:05:37.217Z,2.67
2023-01-08T06:08:26.107Z,2.58
2023-01-08T06:11:13.921Z,2.55
2023-01-08T06:14:01.272Z,2.40
2023-01-08T06:16:48.679Z,2.30
2023-01-08T06:19:36.185Z,2.17
2023-01-08T06:22:23.900Z,2.45
2023-01-08T06:25:13.979Z,2.17
2023-01-08T06:28:01.448Z,2.65
2023-01-08T06:30:48.948Z,2.50
2023-01-08T06:33:36.519Z,2.25
2023-01-08T06:36:24.128Z,2.60
2023-01-08T06:39:11.822Z,1.55
2023-01-08T06:42:00.666Z,1.60
2023-01-08T06:44:48.278Z,1.95
2023-01-08T06:47:36.016Z,1.90
2023-01-08T06:50:23.179Z,1.65
2023-01-08T06:53:10.692Z,1.60
2023-01-08T06:55:58.829Z,1.55
2023-01-08T06:58:47.618Z,1.50
2023-01-08T07:01:35.230Z,1.25
2023-01-08T07:04:22.501Z,1.33
2023-01-08T07:07:15.282Z,1.20
2023-01-08T07:10:02.857Z,1.23
2023-01-08T07:12:50.576Z,1.30
2023-01-08T07:15:40.016Z,1.00
2023-01-08T07:18:27.233Z,1.38
2023-01-08T07:21:14.900Z,1.23
2023-01-08T07:24:02.435Z,1.15
2023-01-08T07:26:49.893Z,1.30
2023-01-08T07:29:37.369Z,1.30
2023-01-08T07:32:26.352Z,1.08
2023-01-08T07:35:14.034Z,1.20
2023-01-08T07:38:01.719Z,1.10
2023-01-08T07:40:49.743Z,1.10
2023-01-08T07:43:37.150Z,0.82
2023-01-08T07:46:24.843Z,0.90
2023-01-08T07:49:13.469Z,0.60
2023-01-08T07:52:01.084Z,0.68
2023-01-08T07:54:48.732Z,0.80
2023-01-08T07:57:36.282Z,0.60
2023-01-08T08:00:24.076Z,0.70
2023-01-08T08:03:12.511Z,0.73
2023-01-08T08:06:02.329Z,0.73
2023-01-08T08:08:49.789Z,0.80
2023-01-08T08:11:38.519Z,0.68
2023-01-08T08:14:26.051Z,0.70
2023-01-08T08:17:13.586Z,0.68
2023-01-08T08:20:01.226Z,1.10
2023-01-08T08:22:50.148Z,0.73
2023-01-08T08:25:38.282Z,0.90
2023-01-08T08:28:25.617Z,0.80
2023-01-08T08:31:13.365Z,1.35
2023-01-08T08:34:00.864Z,0.68
2023-01-08T08:36:48.007Z,1.23
2023-01-08T08:39:37.883Z,0.93
2023-01-08T08:42:25.326Z,1.27
2023-01-08T08:45:13.082Z,1.20
2023-01-08T08:48:00.714Z,1.15
2023-01-08T08:50:48.378Z,1.08
2023-01-08T08:53:36.044Z,1.40
2023-01-08T08:56:25.217Z,1.40
2023-01-08T08:59:13.300Z,1.40
2023-01-08T09:02:00.851Z,1.33
2023-01-08T09:04:48.697Z,1.35
2023-01-08T09:07:36.640Z,1.50
2023-01-08T09:10:24.925Z,1.67
2023-01-08T09:13:14.042Z,1.25
2023-01-08T09:16:02.621Z,1.40
2023-01-08T09:18:50.218Z,1.40
2023-01-08T09:21:38.219Z,1.30
2023-01-08T09:24:25.711Z,1.25
2023-01-08T09:27:13.008Z,1.30
2023-01-08T09:30:01.823Z,1.50
2023-01-08T09:32:49.105Z,1.30
2023-01-08T09:35:36.819Z,1.02
2023-01-08T09:38:24.419Z,1.10
2023-01-08T09:41:18.864Z,1.23
2023-01-08T09:44:07.925Z,1.35
2023-01-08T09:46:57.511Z,1.60
2023-01-08T09:49:47.807Z,2.10
2023-01-08T09:52:35.264Z,1.92
2023-01-08T09:55:23.100Z,1.27
2023-01-08T09:58:23.072Z,1.50
2023-01-08T10:01:12.539Z,1.88
2023-01-08T10:04:05.840Z,1.60
2023-01-08T10:06:56.771Z,2.13
2023-01-08T10:09:44.197Z,1.80
2023-01-08T10:12:33.990Z,1.75
2023-01-08T10:15:23.424Z,1.45
2023-01-08T10:18:14.517Z,2.47
2023-01-08T10:21:03.439Z,1.60
2023-01-08T10:23:52.321Z,1.80
2023-01-08T10:26:40.010Z,1.63
2023-01-08T10:29:27.494Z,1.65
2023-01-08T10:32:20.648Z,1.63
2023-01-08T10:35:17.584Z,2.33
2023-01-08T10:38:06.849Z,1.63
2023-01-08T10:40:54.828Z,1.45
2023-01-08T10:43:52.542Z,1.25
2023-01-08T10:46:43.244Z,1.52
2023-01-08T10:49:33.326Z,1.75
2023-01-08T10:52:24.787Z,1.73
2023-01-08T10:55:14.083Z,1.52
2023-01-08T10:58:02.878Z,1.63
2023-01-08T11:00:50.577Z,1.45
2023-01-08T11:03:38.095Z,1.60
2023-01-08T11:06:30.088Z,2.33
2023-01-08T11:09:22.730Z,1.67
2023-01-08T11:12:30.743Z,1.60
2023-01-08T11:15:31.359Z,1.38
2023-01-08T11:18:21.389Z,2.50
2023-01-08T11:21:19.614Z,1.60
2023-01-08T11:24:19.371Z,1.30
2023-01-08T11:27:14.178Z,1.67
2023-01-08T11:30:07.554Z,1.30
2023-01-08T11:33:03.270Z,1.37
2023-01-08T11:35:55.486Z,1.58
2023-01-08T11:38:43.530Z,1.65
2023-01-08T11:41:37.538Z,1.30
2023-01-08T11:47:28.438Z,1.23
2023-01-08T11:50:20.227Z,1.75
2023-01-08T11:53:18.634Z,1.38
2023-01-08T11:56:19.757Z,1.63
2023-01-08T11:59:20.146Z,1.80
2023-01-08T12:02:20.697Z,1.80
2023-01-08T12:05:23.939Z,1.90
2023-01-08T12:08:14.520Z,1.67
2023-01-08T12:11:11.159Z,1.70
2023-01-08T12:14:18.213Z,1.92
2023-01-08T12:17:27.184Z,1.83
2023-01-08T12:20:26.649Z,1.70
2023-01-08T12:23:28.051Z,2.10
2023-01-08T12:26:21.191Z,2.08
2023-01-08T12:29:16.601Z,1.90
2023-01-08T12:32:22.913Z,2.42
2023-01-08T12:35:14.655Z,2.00
2023-01-08T12:38:07.003Z,2.00
2023-01-08T12:40:56.514Z,1.88
2023-01-08T12:43:52.280Z,1.80
2023-01-08T12:46:43.653Z,1.20
2023-01-08T12:49:37.132Z,1.40
2023-01-08T12:52:31.045Z,1.38
2023-01-08T12:55:35.230Z,1.25
2023-01-08T12:58:32.914Z,1.10
2023-01-08T13:01:31.097Z,1.33
2023-01-08T13:04:19.427Z,1.30
2023-01-08T13:07:07.088Z,1.25
2023-01-08T13:09:58.594Z,1.75
2023-01-08T13:12:53.700Z,1.30
2023-01-08T13:15:41.230Z,1.10
2023-01-08T13:18:28.801Z,1.27
2023-01-08T13:21:16.364Z,1.50
2023-01-08T13:24:07.041Z,1.20
2023-01-08T13:26:54.744Z,1.20
2023-01-08T13:29:44.209Z,0.95
2023-01-08T13:32:43.942Z,0.70
2023-01-08T13:35:32.301Z,1.15
2023-01-08T13:38:20.755Z,1.30
2023-01-08T13:41:26.124Z,0.80
2023-01-08T13:44:23.268Z,1.10
2023-01-08T13:47:23.272Z,0.70
2023-01-08T13:50:18.375Z,0.95
2023-01-08T13:53:05.770Z,0.98
2023-01-08T13:55:55.781Z,0.70
2023-01-08T13:58:47.720Z,1.00
2023-01-08T14:01:35.414Z,1.00
2023-01-08T14:04:24.819Z,0.95
2023-01-08T14:07:15.511Z,0.80
2023-01-08T14:10:09.796Z,1.00
2023-01-08T14:15:48.990Z,1.00
2023-01-08T14:18:36.817Z,0.88
2023-01-08T14:21:26.042Z,1.10
2023-01-08T14:24:16.902Z,0.85
2023-01-08T14:27:04.595Z,0.90
2023-01-08T14:29:52.114Z,1.00
2023-01-08T14:32:44.438Z,0.77
2023-01-08T14:35:34.792Z,1.00
2023-01-08T14:38:24.003Z,0.70
2023-01-08T14:41:14.634Z,0.82
2023-01-08T14:44:02.180Z,0.77
2023-01-08T14:46:50.302Z,0.80
2023-01-08T14:49:44.504Z,0.82
2023-01-08T14:52:32.082Z,0.75
2023-01-08T14:55:22.719Z,0.80
2023-01-08T14:58:16.082Z,0.70
2023-01-08T15:01:08.751Z,0.73
2023-01-08T15:04:07.669Z,1.02
2023-01-08T15:07:07.244Z,0.90
2023-01-08T15:09:59.427Z,0.57
2023-01-08T15:12:57.261Z,1.20
2023-01-08T15:15:57.336Z,1.08
2023-01-08T15:18:47.685Z,0.80
2023-01-08T15:21:36.327Z,0.80
2023-01-08T15:24:26.163Z,1.20
2023-01-08T15:27:19.884Z,1.13
2023-01-08T15:30:27.508Z,0.80
2023-01-08T15:33:20.490Z,1.45
2023-01-08T15:36:08.270Z,1.13
2023-01-08T15:38:55.645Z,0.90
2023-01-08T15:42:00.644Z,0.90
2023-01-08T15:44:48.207Z,1.10
2023-01-08T15:47:37.161Z,1.20
2023-01-08T15:50:25.766Z,0.90
2023-01-08T15:53:18.059Z,0.70
2023-01-08T15:56:06.066Z,0.85
2023-01-08T15:58:54.027Z,0.90
2023-01-08T16:01:41.328Z,0.70
2023-01-08T16:04:30.041Z,1.00
2023-01-08T16:07:17.743Z,0.90
2023-01-08T16:10:05.759Z,1.10
2023-01-08T16:12:53.526Z,1.15
2023-01-08T16:15:41.301Z,1.10
2023-01-08T16:18:29.909Z,0.90
2023-01-08T16:21:18.716Z,0.93
2023-01-08T16:24:07.525Z,0.88
2023-01-08T16:26:55.175Z,1.05
2023-01-08T16:29:42.688Z,1.05
2023-01-08T16:32:30.365Z,0.90
2023-01-08T16:35:17.971Z,1.05
2023-01-08T16:38:08.359Z,0.80
2023-01-08T16:40:57.657Z,1.13
2023-01-08T16:43:45.389Z,1.13
2023-01-08T16:46:33.373Z,1.08
2023-01-08T16:49:21.185Z,1.35
2023-01-08T16:52:09.423Z,1.20
2023-01-08T16:54:58.839Z,1.10
2023-01-08T16:57:46.450Z,1.08
2023-01-08T17:00:34.271Z,0.90
2023-01-08T17:03:22.416Z,1.10
2023-01-08T17:06:12.601Z,1.27
2023-01-08T17:09:00.711Z,1.10
2023-01-08T17:11:49.930Z,1.27
2023-01-08T17:14:37.816Z,1.27
2023-01-08T17:17:25.313Z,1.30
2023-01-08T17:20:13.311Z,1.00
2023-01-08T17:23:01.722Z,1.20
2023-01-08T17:25:50.391Z,1.00
2023-01-08T17:28:39.331Z,0.95
2023-01-08T17:31:26.743Z,1.05
2023-01-08T17:34:14.488Z,1.08
2023-01-08T17:37:01.729Z,1.38
2023-01-08T17:39:49.367Z,1.38
2023-01-08T17:42:36.746Z,1.23
2023-01-08T17:45:25.907Z,1.10
2023-01-08T17:48:13.437Z,1.33
2023-01-08T17:51:01.118Z,1.65
2023-01-08T17:53:48.451Z,1.48
2023-01-08T17:56:36.126Z,1.67
2023-01-08T17:59:24.076Z,1.55
2023-01-08T18:02:15.919Z,1.80
2023-01-08T18:05:03.511Z,1.60
2023-01-08T18:07:51.398Z,1.60
2023-01-08T18:10:39.721Z,1.17
2023-01-08T18:13:27.354Z,1.55
2023-01-08T18:16:15.964Z,1.40
2023-01-08T18:19:04.814Z,1.95
2023-01-08T18:21:52.321Z,2.03
2023-01-08T18:24:39.471Z,1.92
2023-01-08T18:27:27.154Z,1.70
2023-01-08T18:30:14.843Z,2.03
2023-01-08T18:33:02.480Z,1.75
2023-01-08T18:35:51.684Z,1.90
2023-01-08T18:38:40.365Z,1.50
2023-01-08T18:41:45.043Z,1.67
2023-01-08T18:44:32.422Z,1.80
2023-01-08T18:47:20.633Z,1.50
2023-01-08T18:50:08.599Z,1.40
2023-01-08T18:52:57.023Z,1.90
2023-01-08T18:55:44.663Z,1.77
2023-01-08T18:58:32.468Z,1.42
2023-01-08T19:01:20.166Z,2.30
2023-01-08T19:04:07.532Z,1.67
2023-01-08T19:06:55.319Z,1.65
2023-01-08T19:09:44.641Z,2.20
2023-01-08T19:12:32.454Z,1.80
2023-01-08T19:15:19.919Z,1.92
2023-01-08T19:18:08.902Z,2.42
2023-01-08T19:20:59.399Z,1.80
2023-01-08T19:23:47.832Z,1.90
2023-01-08T19:26:36.783Z,1.90
2023-01-08T19:29:24.055Z,2.17
2023-01-08T19:32:11.691Z,1.90
2023-01-08T19:35:01.111Z,2.50
2023-01-08T19:37:48.564Z,2.00
2023-01-08T19:40:35.882Z,2.33
2023-01-08T19:43:41.653Z,3.03
2023-01-08T19:46:29.120Z,2.10
2023-01-08T19:49:16.401Z,2.28
2023-01-08T19:52:03.623Z,1.90
2023-01-08T19:54:51.179Z,1.60
2023-01-08T19:57:38.863Z,1.83
2023-01-08T20:00:28.599Z,1.70
2023-01-08T20:03:19.741Z,1.90
2023-01-08T20:06:09.008Z,1.55
2023-01-08T20:08:59.711Z,1.60
2023-01-08T20:11:47.062Z,2.60
2023-01-08T20:14:35.338Z,1.80
2023-01-08T20:17:25.360Z,1.55
2023-01-08T20:20:13.426Z,1.50
2023-01-08T20:23:00.758Z,1.40
2023-01-08T20:25:48.383Z,1.25
2023-01-08T20:28:37.877Z,1.30
2023-01-08T20:31:29.349Z,1.60
2023-01-08T20:34:17.808Z,1.50
2023-01-08T20:37:07.318Z,1.60
2023-01-08T20:39:55.027Z,1.85
2023-01-08T20:42:46.236Z,1.40
2023-01-08T20:45:33.567Z,1.40
2023-01-08T20:48:21.098Z,1.70
2023-01-08T20:51:12.415Z,1.65
2023-01-08T20:54:01.450Z,1.98
2023-01-08T20:56:49.191Z,1.38
2023-01-08T20:59:36.507Z,1.98
2023-01-08T21:02:24.039Z,1.73
2023-01-08T21:05:11.636Z,1.67
2023-01-08T21:08:00.648Z,1.70
2023-01-08T21:10:57.908Z,1.60
2023-01-08T21:13:45.439Z,1.13
2023-01-08T21:16:34.840Z,1.58
2023-01-08T21:19:22.241Z,1.70
2023-01-08T21:22:09.689Z,1.60
2023-01-08T21:24:58.778Z,1.42
2023-01-08T21:27:46.354Z,1.50
2023-01-08T21:30:34.054Z,1.92
2023-01-08T21:33:22.598Z,1.40
2023-01-08T21:36:11.626Z,1.55
2023-01-08T21:38:59.646Z,1.75
2023-01-08T21:42:06.021Z,1.55
2023-01-08T21:45:10.707Z,1.70
2023-01-08T21:47:58.822Z,1.50
2023-01-08T21:50:46.064Z,1.83
2023-01-08T21:53:34.097Z,1.70
2023-01-08T21:56:23.431Z,1.98
2023-01-08T21:59:12.728Z,2.15
2023-01-08T22:02:00.383Z,1.77
2023-01-08T22:04:47.973Z,1.80
2023-01-08T22:07:36.236Z,1.77
2023-01-08T22:10:23.787Z,2.55
2023-01-08T22:13:11.555Z,2.05
2023-01-08T22:16:04.439Z,2.08
2023-01-08T22:18:52.260Z,1.50
2023-01-08T22:21:39.958Z,1.98
2023-01-08T22:24:27.227Z,1.70
2023-01-08T22:27:14.822Z,1.88
2023-01-08T22:30:02.516Z,1.90
2023-01-08T22:32:51.636Z,1.77
2023-01-08T22:35:39.325Z,1.92
2023-01-08T22:38:26.612Z,2.47
2023-01-08T22:41:17.515Z,1.98
2023-01-08T22:44:04.758Z,1.95
2023-01-08T22:46:51.857Z,2.17
2023-01-08T22:49:40.837Z,2.33
2023-01-08T22:52:28.510Z,1.98
2023-01-08T22:55:16.118Z,2.30
2023-01-08T22:58:03.678Z,2.35
2023-01-08T23:00:51.058Z,2.72
2023-01-08T23:03:42.816Z,2.75
2023-01-08T23:06:32.005Z,2.45
2023-01-08T23:09:19.447Z,2.22
2023-01-08T23:12:07.090Z,2.30
2023-01-08T23:14:54.678Z,2.58
2023-01-08T23:17:52.092Z,2.85
2023-01-08T23:20:40.105Z,2.50
2023-01-08T23:23:28.859Z,2.38
2023-01-08T23:26:19.592Z,2.53
2023-01-08T23:29:07.175Z,2.25
2023-01-08T23:31:54.660Z,2.25
2023-01-08T23:34:42.392Z,2.25
2023-01-08T23:37:29.684Z,2.35
2023-01-08T23:40:19.203Z,2.10
2023-01-08T23:43:06.524Z,1.95
2023-01-08T23:45:55.735Z,2.10
2023-01-08T23:48:43.160Z,2.38
2023-01-08T23:51:31.318Z,1.92
2023-01-08T23:54:19.522Z,2.38
2023-01-08T23:57:08.350Z,2.45
2023-01-08T23:59:56.342Z,1.90
